Vina, Alabama
Current Conditions -  °F | °C
As of 5:56 AM on Wednesday 26 Nov 2014 (Local Time) from K1M4 Reporting Station
Clear Clear  
Wind Chill: 26°   Ceiling: Unl
Heat Index: 26°   Visibility: 10mi
Dew Point: 25°   Wind: 0mph
Humidity: 96%   Direction: NA
Pressure: 30.15"   Gusts: NA
Location:  34.38°N, 88.06°W
Report Text: K1M4 261156Z AUTO 00000KT 10SM CLR M03/M04 A3015 RMK AO2 51007 T10331038 10011 21033 SLP221
Loading
Personal Weather Stations






























Interactive Weather Map New forecast layout! Learn more

10-Day Weather Forecast

Advertisements
Track Severe Weather on mobile